createdAt,value
2022-07-31T00:00:19.239Z,6.57
2022-07-31T00:02:46.920Z,4.50
2022-07-31T00:05:14.530Z,9.20
2022-07-31T00:07:41.564Z,7.15
2022-07-31T00:10:09.272Z,5.00
2022-07-31T00:12:36.403Z,6.55
2022-07-31T00:15:06.906Z,3.33
2022-07-31T00:17:34.347Z,5.00
2022-07-31T00:20:02.027Z,5.50
2022-07-31T00:22:29.113Z,4.72
2022-07-31T00:24:56.851Z,3.97
2022-07-31T00:27:24.030Z,5.10
2022-07-31T00:29:51.320Z,4.70
2022-07-31T00:32:18.718Z,5.75
2022-07-31T00:34:45.811Z,6.07
2022-07-31T00:37:35.951Z,3.42
2022-07-31T00:40:05.584Z,2.78
2022-07-31T00:42:32.776Z,4.22
2022-07-31T00:45:00.125Z,5.28
2022-07-31T00:47:27.374Z,5.35
2022-07-31T00:49:54.989Z,10.63
2022-07-31T00:52:22.033Z,3.50
2022-07-31T00:54:49.305Z,3.67
2022-07-31T00:57:16.402Z,4.13
2022-07-31T00:59:44.296Z,8.35
2022-07-31T01:02:12.282Z,6.13
2022-07-31T01:04:54.762Z,4.88
2022-07-31T01:07:21.723Z,5.53
2022-07-31T01:09:49.906Z,4.75
2022-07-31T01:12:38.357Z,5.43
2022-07-31T01:15:10.242Z,6.03
2022-07-31T01:17:40.321Z,3.60
2022-07-31T01:20:08.825Z,3.05
2022-07-31T01:23:31.011Z,8.77
2022-07-31T01:26:35.995Z,5.80
2022-07-31T01:29:24.277Z,3.90
2022-07-31T01:32:06.161Z,5.80
2022-07-31T01:34:52.270Z,2.90
2022-07-31T01:37:32.156Z,4.65
2022-07-31T01:40:06.588Z,7.72
2022-07-31T01:42:37.518Z,3.38
2022-07-31T01:45:10.667Z,4.93
2022-07-31T01:47:43.012Z,7.72
2022-07-31T01:50:42.434Z,2.63
2022-07-31T01:53:00.928Z,3.30
2022-07-31T01:55:31.073Z,5.85
2022-07-31T01:58:21.624Z,6.10
2022-07-31T02:00:52.152Z,4.05
2022-07-31T02:03:43.728Z,7.03
2022-07-31T02:06:10.804Z,5.72
2022-07-31T02:08:38.989Z,7.43
2022-07-31T02:11:07.054Z,3.03
2022-07-31T02:13:37.898Z,5.75
2022-07-31T02:16:06.169Z,3.42
2022-07-31T02:18:35.273Z,2.30
2022-07-31T02:21:02.316Z,6.53
2022-07-31T02:23:29.345Z,2.40
2022-07-31T02:25:57.117Z,3.63
2022-07-31T02:28:26.059Z,2.13
2022-07-31T02:30:54.317Z,8.73
2022-07-31T02:33:25.487Z,6.07
2022-07-31T02:35:56.470Z,5.38
2022-07-31T02:38:27.499Z,3.00
2022-07-31T02:41:01.570Z,3.90
2022-07-31T02:43:31.011Z,5.57
2022-07-31T02:45:59.045Z,6.93
2022-07-31T02:48:27.468Z,5.93
2022-07-31T02:50:56.214Z,8.48
2022-07-31T02:53:23.889Z,5.40
2022-07-31T02:55:52.615Z,5.57
2022-07-31T02:58:19.980Z,2.53
2022-07-31T03:00:47.197Z,5.85
2022-07-31T03:03:14.489Z,4.47
2022-07-31T03:05:41.522Z,3.03
2022-07-31T03:08:08.528Z,6.35
2022-07-31T03:10:35.506Z,3.72
2022-07-31T03:13:05.313Z,4.43
2022-07-31T03:15:33.894Z,3.38
2022-07-31T03:18:01.804Z,2.33
2022-07-31T03:20:39.712Z,4.37
2022-07-31T03:23:07.355Z,9.33
2022-07-31T03:25:34.474Z,5.33
2022-07-31T03:28:01.685Z,2.70
2022-07-31T03:30:28.983Z,6.83
2022-07-31T03:32:57.145Z,2.97
2022-07-31T03:35:27.305Z,4.27
2022-07-31T03:37:55.868Z,2.95
2022-07-31T03:40:22.955Z,5.97
2022-07-31T03:42:50.863Z,3.00
2022-07-31T03:45:19.242Z,5.93
2022-07-31T03:47:46.559Z,4.53
2022-07-31T03:50:14.686Z,4.63
2022-07-31T03:52:41.882Z,2.85
2022-07-31T03:55:09.899Z,6.00
2022-07-31T03:57:38.638Z,3.40
2022-07-31T04:00:12.389Z,2.58
2022-07-31T04:02:45.414Z,3.38
2022-07-31T04:05:12.483Z,10.10
2022-07-31T04:07:39.491Z,3.22
2022-07-31T04:10:07.314Z,11.45
2022-07-31T04:12:34.379Z,16.10
2022-07-31T04:15:01.431Z,4.38
2022-07-31T04:17:35.896Z,5.10
2022-07-31T04:20:05.537Z,10.70
2022-07-31T04:22:32.899Z,2.67
2022-07-31T04:24:59.890Z,3.78
2022-07-31T04:27:27.098Z,4.03
2022-07-31T04:29:55.378Z,3.33
2022-07-31T04:32:22.465Z,7.60
2022-07-31T04:34:51.379Z,3.50
2022-07-31T04:37:18.347Z,6.32
2022-07-31T04:39:45.648Z,10.95
2022-07-31T04:42:12.980Z,4.90
2022-07-31T04:44:40.032Z,3.20
2022-07-31T04:47:08.045Z,2.78
2022-07-31T04:49:35.122Z,1.83
2022-07-31T04:52:02.695Z,2.97
2022-07-31T04:54:29.866Z,6.68
2022-07-31T04:56:56.909Z,3.35
2022-07-31T04:59:24.174Z,6.72
2022-07-31T05:02:11.176Z,3.05
2022-07-31T05:04:39.250Z,5.20
2022-07-31T05:07:06.205Z,5.45
2022-07-31T05:09:36.479Z,2.72
2022-07-31T05:12:04.398Z,2.78
2022-07-31T05:14:31.674Z,2.80
2022-07-31T05:16:58.657Z,3.33
2022-07-31T05:19:29.804Z,7.30
2022-07-31T05:22:02.380Z,2.58
2022-07-31T05:24:33.726Z,6.85
2022-07-31T05:27:03.051Z,2.95
2022-07-31T05:29:31.372Z,2.47
2022-07-31T05:32:00.048Z,3.40
2022-07-31T05:34:32.209Z,3.03
2022-07-31T05:37:02.484Z,2.85
2022-07-31T05:39:30.718Z,6.50
2022-07-31T05:41:58.016Z,10.20
2022-07-31T05:44:25.060Z,3.75
2022-07-31T05:49:19.955Z,3.90
2022-07-31T05:51:47.252Z,2.78
2022-07-31T05:54:14.837Z,8.73
2022-07-31T05:56:41.843Z,5.95
2022-07-31T05:59:09.730Z,6.05
2022-07-31T06:01:37.159Z,2.72
2022-07-31T06:04:04.301Z,1.90
2022-07-31T06:06:34.344Z,2.50
2022-07-31T06:09:04.496Z,2.22
2022-07-31T06:11:32.431Z,3.90
2022-07-31T06:13:59.439Z,4.65
2022-07-31T06:16:26.414Z,3.83
2022-07-31T06:18:53.369Z,6.40
2022-07-31T06:23:46.293Z,3.47
2022-07-31T06:26:13.442Z,2.65
2022-07-31T06:28:48.994Z,3.75
2022-07-31T06:31:21.730Z,6.78
2022-07-31T06:33:50.786Z,3.90
2022-07-31T06:36:19.377Z,8.63
2022-07-31T06:38:46.659Z,5.55
2022-07-31T06:41:32.645Z,4.50
2022-07-31T06:43:59.647Z,8.57
2022-07-31T06:46:26.811Z,3.10
2022-07-31T06:48:53.897Z,4.22
2022-07-31T06:51:30.807Z,3.53
2022-07-31T06:54:05.423Z,3.60
2022-07-31T06:56:34.103Z,3.33
2022-07-31T06:59:02.114Z,4.82
2022-07-31T07:01:29.595Z,5.50
2022-07-31T07:03:57.144Z,5.00
2022-07-31T07:06:24.905Z,6.85
2022-07-31T07:08:52.789Z,6.15
2022-07-31T07:11:20.454Z,7.00
2022-07-31T07:13:47.691Z,17.05
2022-07-31T07:16:16.078Z,6.18
2022-07-31T07:18:43.728Z,4.72
2022-07-31T07:21:11.215Z,9.88
2022-07-31T07:23:38.829Z,11.32
2022-07-31T07:26:06.653Z,7.18
2022-07-31T07:28:34.359Z,13.23
2022-07-31T07:31:02.440Z,12.05
2022-07-31T07:33:40.019Z,9.35
2022-07-31T07:36:24.050Z,11.50
2022-07-31T07:38:55.902Z,9.45
2022-07-31T07:41:26.614Z,10.15
2022-07-31T07:43:53.975Z,9.63
2022-07-31T07:46:23.624Z,12.30
2022-07-31T07:48:51.097Z,8.23
2022-07-31T07:51:19.518Z,8.63
2022-07-31T07:53:46.675Z,11.45
2022-07-31T07:56:13.710Z,9.85
2022-07-31T07:58:40.890Z,10.90
2022-07-31T08:01:08.166Z,15.88
2022-07-31T08:03:49.213Z,12.30
2022-07-31T08:06:21.147Z,12.52
2022-07-31T08:08:48.580Z,11.32
2022-07-31T08:11:17.997Z,14.48
2022-07-31T08:13:51.123Z,9.00
2022-07-31T08:16:20.550Z,12.60
2022-07-31T08:18:49.574Z,13.48
2022-07-31T08:21:16.952Z,10.88
2022-07-31T08:23:43.943Z,10.93
2022-07-31T08:26:11.530Z,10.15
2022-07-31T08:28:40.477Z,14.75
2022-07-31T08:31:08.467Z,10.77
2022-07-31T08:33:35.417Z,9.60
2022-07-31T08:36:02.919Z,12.68
2022-07-31T08:38:29.937Z,7.80
2022-07-31T08:40:57.145Z,10.77
2022-07-31T08:44:02.700Z,9.55
2022-07-31T08:46:12.984Z,13.25
2022-07-31T08:48:46.145Z,11.05
2022-07-31T08:51:14.127Z,10.20
2022-07-31T08:53:44.707Z,12.55
2022-07-31T08:56:12.834Z,14.30
2022-07-31T08:58:40.220Z,10.57
2022-07-31T09:01:11.557Z,19.67
2022-07-31T09:03:39.063Z,11.02
2022-07-31T09:06:06.838Z,11.20
2022-07-31T09:08:38.229Z,15.35
2022-07-31T09:11:08.651Z,12.85
2022-07-31T09:13:36.299Z,10.57
2022-07-31T09:16:04.489Z,10.02
2022-07-31T09:18:32.079Z,12.25
2022-07-31T09:21:03.191Z,11.82
2022-07-31T09:23:32.157Z,13.38
2022-07-31T09:26:05.425Z,11.70
2022-07-31T09:28:49.205Z,11.55
2022-07-31T09:31:16.357Z,11.18
2022-07-31T09:33:46.128Z,7.50
2022-07-31T09:36:14.184Z,12.68
2022-07-31T09:38:43.552Z,7.63
2022-07-31T09:41:20.483Z,10.80
2022-07-31T09:44:09.987Z,11.15
2022-07-31T09:46:48.266Z,11.20
2022-07-31T09:49:16.193Z,14.98
2022-07-31T09:51:48.312Z,11.95
2022-07-31T09:54:29.913Z,12.75
2022-07-31T09:56:57.908Z,8.68
2022-07-31T09:59:26.575Z,10.98
2022-07-31T10:01:54.418Z,12.13
2022-07-31T10:04:23.603Z,9.18
2022-07-31T10:06:52.468Z,9.35
2022-07-31T10:09:21.581Z,11.40
2022-07-31T10:11:52.116Z,9.45
2022-07-31T10:14:28.165Z,10.65
2022-07-31T10:17:00.371Z,14.10
2022-07-31T10:19:34.697Z,8.05
2022-07-31T10:22:05.323Z,8.48
2022-07-31T10:24:36.070Z,10.65
2022-07-31T10:27:07.815Z,8.75
2022-07-31T10:29:39.348Z,9.45
2022-07-31T10:32:08.706Z,10.52
2022-07-31T10:34:37.047Z,7.75
2022-07-31T10:37:33.697Z,9.07
2022-07-31T10:40:20.859Z,9.07
2022-07-31T10:43:20.358Z,11.70
2022-07-31T10:45:52.417Z,10.80
2022-07-31T10:48:20.741Z,9.05
2022-07-31T10:51:00.352Z,10.82
2022-07-31T10:53:50.326Z,10.90
2022-07-31T10:56:17.773Z,7.75
2022-07-31T10:58:58.031Z,10.00
2022-07-31T11:01:26.503Z,7.78
2022-07-31T11:04:01.668Z,8.73
2022-07-31T11:06:44.548Z,8.18
2022-07-31T11:09:23.463Z,7.40
2022-07-31T11:11:51.476Z,8.13
2022-07-31T11:14:40.467Z,7.07
2022-07-31T11:17:07.786Z,6.28
2022-07-31T11:19:43.152Z,6.25
2022-07-31T11:22:31.233Z,10.63
2022-07-31T11:25:01.098Z,9.00
2022-07-31T11:27:34.639Z,5.78
2022-07-31T11:30:12.808Z,6.03
2022-07-31T11:32:47.509Z,8.80
2022-07-31T11:35:29.197Z,8.70
2022-07-31T11:37:58.743Z,6.80
2022-07-31T11:40:28.216Z,8.45
2022-07-31T11:43:24.898Z,6.18
2022-07-31T11:45:53.698Z,10.68
2022-07-31T11:48:27.351Z,6.05
2022-07-31T11:50:54.706Z,8.48
2022-07-31T11:53:21.985Z,7.03
2022-07-31T11:56:00.958Z,6.60
2022-07-31T11:58:29.580Z,8.73
2022-07-31T12:00:59.148Z,6.28
2022-07-31T12:03:33.413Z,6.43
2022-07-31T12:06:01.028Z,8.48
2022-07-31T12:08:29.603Z,7.50
2022-07-31T12:10:59.817Z,7.22
2022-07-31T12:13:28.428Z,10.20
2022-07-31T12:15:56.629Z,5.90
2022-07-31T12:18:26.302Z,5.85
2022-07-31T12:21:03.659Z,8.07
2022-07-31T12:23:41.912Z,6.55
2022-07-31T12:26:22.021Z,9.30
2022-07-31T12:29:02.083Z,4.50
2022-07-31T12:31:32.540Z,5.82
2022-07-31T12:33:59.621Z,6.53
2022-07-31T12:36:27.321Z,5.82
2022-07-31T12:39:02.495Z,7.97
2022-07-31T12:41:30.918Z,3.47
2022-07-31T12:44:13.465Z,5.63
2022-07-31T12:46:42.018Z,3.35
2022-07-31T12:49:09.432Z,6.30
2022-07-31T12:51:45.439Z,3.45
2022-07-31T12:54:18.008Z,4.93
2022-07-31T12:56:46.601Z,4.53
2022-07-31T12:59:14.225Z,8.40
2022-07-31T13:01:41.685Z,5.15
2022-07-31T13:04:19.103Z,4.55
2022-07-31T13:06:48.583Z,3.38
2022-07-31T13:09:16.129Z,5.13
2022-07-31T13:11:46.442Z,4.35
2022-07-31T13:14:17.323Z,3.67
2022-07-31T13:16:45.658Z,7.13
2022-07-31T13:19:13.697Z,4.32
2022-07-31T13:21:49.347Z,4.70
2022-07-31T13:24:21.320Z,4.00
2022-07-31T13:26:51.438Z,3.80
2022-07-31T13:29:18.572Z,8.98
2022-07-31T13:31:45.610Z,8.82
2022-07-31T13:34:13.195Z,4.43
2022-07-31T13:36:40.401Z,6.80
2022-07-31T13:39:08.627Z,4.50
2022-07-31T13:41:39.217Z,8.00
2022-07-31T13:44:07.815Z,6.10
2022-07-31T13:46:35.493Z,4.50
2022-07-31T13:49:04.027Z,4.68
2022-07-31T13:51:31.028Z,5.80
2022-07-31T13:53:57.973Z,6.22
2022-07-31T13:56:38.976Z,5.40
2022-07-31T13:59:13.274Z,7.10
2022-07-31T14:02:04.538Z,6.75
2022-07-31T14:04:32.361Z,7.75
2022-07-31T14:07:03.436Z,5.65
2022-07-31T14:09:34.648Z,9.05
2022-07-31T14:12:04.669Z,6.15
2022-07-31T14:14:34.657Z,7.13
2022-07-31T14:17:01.639Z,6.75
2022-07-31T14:19:28.727Z,8.07
2022-07-31T14:21:56.916Z,6.93
2022-07-31T14:24:40.251Z,5.78
2022-07-31T14:27:07.577Z,5.03
2022-07-31T14:29:36.043Z,10.18
2022-07-31T14:32:07.771Z,6.95
2022-07-31T14:34:35.887Z,7.47
2022-07-31T14:37:03.564Z,5.07
2022-07-31T14:39:31.195Z,5.80
2022-07-31T14:41:58.178Z,5.10
2022-07-31T14:44:28.543Z,5.70
2022-07-31T14:46:56.272Z,3.42
2022-07-31T14:49:23.536Z,4.55
2022-07-31T14:51:50.543Z,6.18
2022-07-31T14:54:17.530Z,7.45
2022-07-31T14:57:00.674Z,5.93
2022-07-31T14:59:32.245Z,5.50
2022-07-31T15:02:00.182Z,7.70
2022-07-31T15:04:35.490Z,11.35
2022-07-31T15:07:32.310Z,9.48
2022-07-31T15:09:50.244Z,7.05
2022-07-31T15:12:17.211Z,6.10
2022-07-31T15:14:44.749Z,4.43
2022-07-31T15:17:11.795Z,5.05
2022-07-31T15:19:38.755Z,8.07
2022-07-31T15:22:15.827Z,12.60
2022-07-31T15:24:49.155Z,5.85
2022-07-31T15:27:24.692Z,5.38
2022-07-31T15:30:00.319Z,5.93
2022-07-31T15:32:35.166Z,5.97
2022-07-31T15:35:02.428Z,4.45
2022-07-31T15:37:30.335Z,7.90
2022-07-31T15:40:02.981Z,5.63
2022-07-31T15:42:32.455Z,8.25
2022-07-31T15:44:59.391Z,8.93
2022-07-31T15:47:26.395Z,6.47
2022-07-31T15:49:53.356Z,5.90
2022-07-31T15:52:20.365Z,8.85
2022-07-31T15:54:51.785Z,9.57
2022-07-31T15:57:23.830Z,5.80
2022-07-31T15:59:56.665Z,6.43
2022-07-31T16:02:24.827Z,6.75
2022-07-31T16:04:56.457Z,6.88
2022-07-31T16:08:32.333Z,4.90
2022-07-31T16:10:18.165Z,4.93
2022-07-31T16:12:46.358Z,7.47
2022-07-31T16:15:16.263Z,7.28
2022-07-31T16:17:45.238Z,7.95
2022-07-31T16:20:26.798Z,5.32
2022-07-31T16:23:01.019Z,8.23
2022-07-31T16:25:32.059Z,6.13
2022-07-31T16:28:04.879Z,6.47
2022-07-31T16:30:32.693Z,9.65
2022-07-31T16:32:59.990Z,7.45
2022-07-31T16:35:27.471Z,4.47
2022-07-31T16:37:55.367Z,9.40
2022-07-31T16:40:30.008Z,7.18
2022-07-31T16:43:48.499Z,5.18
2022-07-31T16:45:55.675Z,7.50
2022-07-31T16:48:23.225Z,7.35
2022-07-31T16:50:54.132Z,9.10
2022-07-31T16:54:12.113Z,3.83
2022-07-31T16:56:16.714Z,13.00
2022-07-31T16:58:44.308Z,10.93
2022-07-31T17:01:57.153Z,9.27
2022-07-31T17:04:03.998Z,8.13
2022-07-31T17:06:38.025Z,7.35
2022-07-31T17:09:16.129Z,8.60
2022-07-31T17:11:48.263Z,6.75
2022-07-31T17:14:20.466Z,6.97
2022-07-31T17:16:49.736Z,6.97
2022-07-31T17:19:36.013Z,6.40
2022-07-31T17:22:04.959Z,11.18
2022-07-31T17:24:32.179Z,3.85
2022-07-31T17:26:59.845Z,8.00
2022-07-31T17:29:27.158Z,8.70
2022-07-31T17:31:54.366Z,9.70
2022-07-31T17:34:21.660Z,4.85
2022-07-31T17:36:50.275Z,6.57
2022-07-31T17:39:17.905Z,5.55
2022-07-31T17:41:45.043Z,3.83
2022-07-31T17:44:12.162Z,4.32
2022-07-31T17:46:48.051Z,8.98
2022-07-31T17:49:19.357Z,6.95
2022-07-31T17:51:59.032Z,9.55
2022-07-31T17:54:35.254Z,8.25
2022-07-31T17:57:04.013Z,6.60
2022-07-31T17:59:32.296Z,6.75
2022-07-31T18:02:00.455Z,4.25
2022-07-31T18:04:31.231Z,9.45
2022-07-31T18:07:00.495Z,6.97
2022-07-31T18:09:28.775Z,10.50
2022-07-31T18:11:57.683Z,7.53
2022-07-31T18:14:26.083Z,7.63
2022-07-31T18:16:53.953Z,10.63
2022-07-31T18:19:22.088Z,9.65
2022-07-31T18:21:51.009Z,9.23
2022-07-31T18:24:20.517Z,5.95
2022-07-31T18:26:48.251Z,9.98
2022-07-31T18:29:17.102Z,7.72
2022-07-31T18:31:45.594Z,9.15
2022-07-31T18:34:13.645Z,9.52
2022-07-31T18:36:41.238Z,7.07
2022-07-31T18:39:08.565Z,7.80
2022-07-31T18:41:35.758Z,5.47
2022-07-31T18:44:03.473Z,7.07
2022-07-31T18:46:32.258Z,7.18
2022-07-31T18:48:59.886Z,9.13
2022-07-31T18:51:29.319Z,10.80
2022-07-31T18:53:56.999Z,6.55
2022-07-31T18:56:25.951Z,10.38
2022-07-31T18:58:54.685Z,8.88
2022-07-31T19:01:23.554Z,9.75
2022-07-31T19:03:52.379Z,6.78
2022-07-31T19:06:20.634Z,10.10
2022-07-31T19:08:49.681Z,7.55
2022-07-31T19:11:19.171Z,11.23
2022-07-31T19:13:46.921Z,15.93
2022-07-31T19:16:15.858Z,11.13
2022-07-31T19:18:45.067Z,11.38
2022-07-31T19:21:21.312Z,9.40
2022-07-31T19:23:55.379Z,10.10
2022-07-31T19:26:22.399Z,13.52
2022-07-31T19:28:49.432Z,18.63
2022-07-31T19:31:16.606Z,12.77
2022-07-31T19:33:43.641Z,12.32
2022-07-31T19:36:15.280Z,10.73
2022-07-31T19:38:44.320Z,10.50
2022-07-31T19:41:13.064Z,11.88
2022-07-31T19:43:40.122Z,8.88
2022-07-31T19:46:11.826Z,10.45
2022-07-31T19:48:45.927Z,9.35
2022-07-31T19:51:15.857Z,15.98
2022-07-31T19:53:44.601Z,9.82
2022-07-31T19:56:19.701Z,12.70
2022-07-31T19:58:48.559Z,9.32
2022-07-31T20:01:15.894Z,10.43
2022-07-31T20:03:43.108Z,10.73
2022-07-31T20:06:10.167Z,6.80
2022-07-31T20:08:37.424Z,12.85
2022-07-31T20:11:05.437Z,8.57
2022-07-31T20:13:33.790Z,11.68
2022-07-31T20:16:01.690Z,13.75
2022-07-31T20:18:29.584Z,13.15
2022-07-31T20:21:02.546Z,9.43
2022-07-31T20:23:31.266Z,9.20
2022-07-31T20:25:58.581Z,10.40
2022-07-31T20:28:26.723Z,12.77
2022-07-31T20:30:54.305Z,12.52
2022-07-31T20:33:21.561Z,12.50
2022-07-31T20:35:50.397Z,10.77
2022-07-31T20:38:24.606Z,14.43
2022-07-31T20:40:55.671Z,8.40
2022-07-31T20:43:26.240Z,13.38
2022-07-31T20:45:57.130Z,12.00
2022-07-31T20:48:32.823Z,20.38
2022-07-31T20:51:02.809Z,15.05
2022-07-31T20:53:30.464Z,11.25
2022-07-31T20:55:58.523Z,13.02
2022-07-31T20:58:26.522Z,16.63
2022-07-31T21:00:54.609Z,16.52
2022-07-31T21:03:22.303Z,14.63
2022-07-31T21:05:49.831Z,18.67
2022-07-31T21:08:17.655Z,16.75
2022-07-31T21:10:45.192Z,15.70
2022-07-31T21:13:12.566Z,18.48
2022-07-31T21:15:43.035Z,15.75
2022-07-31T21:18:19.813Z,20.27
2022-07-31T21:20:52.013Z,19.67
2022-07-31T21:23:23.053Z,17.45
2022-07-31T21:25:52.313Z,19.40
2022-07-31T21:28:19.833Z,15.18
2022-07-31T21:30:47.609Z,16.27
2022-07-31T21:33:15.120Z,17.13
2022-07-31T21:35:42.585Z,14.30
2022-07-31T21:38:12.297Z,19.13
2022-07-31T21:40:40.726Z,19.20
2022-07-31T21:43:09.140Z,19.58
2022-07-31T21:45:50.426Z,22.88
2022-07-31T21:48:25.150Z,19.13
2022-07-31T21:50:53.718Z,19.00
2022-07-31T21:53:21.095Z,18.08
2022-07-31T21:55:48.117Z,21.40
2022-07-31T21:58:15.281Z,14.95
2022-07-31T22:00:42.884Z,23.17
2022-07-31T22:03:10.080Z,13.85
2022-07-31T22:05:55.958Z,22.08
2022-07-31T22:08:22.926Z,16.50
2022-07-31T22:10:52.097Z,14.60
2022-07-31T22:13:20.095Z,18.67
2022-07-31T22:15:59.370Z,15.70
2022-07-31T22:18:36.901Z,16.85
2022-07-31T22:21:07.640Z,16.17
2022-07-31T22:23:36.205Z,19.48
2022-07-31T22:26:03.819Z,17.08
2022-07-31T22:28:31.676Z,16.58
2022-07-31T22:30:59.282Z,13.13
2022-07-31T22:33:27.681Z,15.85
2022-07-31T22:36:02.515Z,14.35
2022-07-31T22:38:31.011Z,10.82
2022-07-31T22:41:02.202Z,17.25
2022-07-31T22:44:12.427Z,14.57
2022-07-31T22:46:17.684Z,12.95
2022-07-31T22:48:46.446Z,11.27
2022-07-31T22:51:14.803Z,14.45
2022-07-31T22:53:49.121Z,13.55
2022-07-31T22:56:17.777Z,9.48
2022-07-31T22:58:44.754Z,16.42
2022-07-31T23:01:11.797Z,13.20
2022-07-31T23:03:38.780Z,14.82
2022-07-31T23:06:30.823Z,9.48
2022-07-31T23:08:54.591Z,12.95
2022-07-31T23:11:23.258Z,12.65
2022-07-31T23:13:51.472Z,9.65
2022-07-31T23:16:20.320Z,11.73
2022-07-31T23:18:47.845Z,12.82
2022-07-31T23:21:14.975Z,11.15
2022-07-31T23:23:41.942Z,10.85
2022-07-31T23:26:15.864Z,8.45
2022-07-31T23:28:42.824Z,9.27
2022-07-31T23:31:09.889Z,7.30
2022-07-31T23:33:36.866Z,12.57
2022-07-31T23:36:04.175Z,8.85
2022-07-31T23:38:31.571Z,8.48
2022-07-31T23:40:58.672Z,9.88
2022-07-31T23:43:26.028Z,12.13
2022-07-31T23:45:54.151Z,9.55
2022-07-31T23:48:21.524Z,8.43
2022-07-31T23:50:49.173Z,9.35
2022-07-31T23:53:16.628Z,7.38
2022-07-31T23:55:44.102Z,8.73
2022-07-31T23:58:11.865Z,6.93
